Time;durP1;ratioP1;P1;durP2;ratioP2;P2;SDS_P1;SDS_P2;PMS_P1;PMS_P2;Temp;Humidity;BMP_temperature;BMP_pressure;BME280_temperature;BME280_humidity;BME280_pressure;Samples;Min_cycle;Max_cycle;Signal;HPM_P1;HPM_P2
2020/12/17 00:00:45;;;;;;;14.9;13.5;;;;;;;8.4;82.9;101170.0;;;;
2020/12/17 00:01:45;;;;;;;14.9;13.5;;;;;;;8.3;83.0;101170.0;;;;
2020/12/17 00:04:45;;;;;;;14.9;13.5;;;;;;;8.4;83.0;101170.0;;;;
2020/12/17 00:05:45;;;;;;;14.9;13.5;;;;;;;8.3;83.1;101170.0;;;;
2020/12/17 00:10:45;;;;;;;14.9;13.5;;;;;;;8.4;82.8;101160.0;;;;
2020/12/17 00:11:45;;;;;;;14.9;13.5;;;;;;;8.3;83.0;101160.0;;;;
2020/12/17 00:12:46;;;;;;;14.9;13.5;;;;;;;8.4;82.9;101160.0;;;;
2020/12/17 00:14:45;;;;;;;14.9;13.5;;;;;;;8.3;83.0;101170.0;;;;
2020/12/17 00:16:45;;;;;;;14.9;13.5;;;;;;;8.2;83.2;101170.0;;;;
2020/12/17 00:17:47;;;;;;;14.9;13.5;;;;;;;8.3;83.1;101160.0;;;;
2020/12/17 00:21:45;;;;;;;13.1;11.9;;;;;;;8.4;82.4;101170.0;;;;
2020/12/17 00:24:45;;;;;;;13.1;11.9;;;;;;;8.3;82.8;101170.0;;;;
2020/12/17 00:25:45;;;;;;;13.1;11.9;;;;;;;8.4;82.8;101160.0;;;;
2020/12/17 00:31:45;;;;;;;13.1;11.9;;;;;;;8.3;83.0;101160.0;;;;
2020/12/17 00:33:45;;;;;;;13.1;11.9;;;;;;;8.4;83.2;101160.0;;;;
2020/12/17 00:34:45;;;;;;;13.1;11.9;;;;;;;8.3;82.9;101170.0;;;;
2020/12/17 00:36:45;;;;;;;13.1;11.9;;;;;;;8.4;83.0;101170.0;;;;
2020/12/17 00:37:45;;;;;;;13.1;11.9;;;;;;;8.3;83.0;101170.0;;;;
2020/12/17 00:38:45;;;;;;;13.1;11.9;;;;;;;8.4;82.9;101170.0;;;;
2020/12/17 00:42:46;;;;;;;13.1;11.9;;;;;;;8.3;82.9;101180.0;;;;
2020/12/17 00:45:45;;;;;;;13.1;11.9;;;;;;;8.4;82.7;101170.0;;;;
2020/12/17 00:47:45;;;;;;;13.1;11.9;;;;;;;8.3;82.7;101170.0;;;;
2020/12/17 00:48:45;;;;;;;13.9;12.6;;;;;;;8.4;82.7;101170.0;;;;
2020/12/17 00:50:45;;;;;;;13.9;12.6;;;;;;;8.5;82.4;101170.0;;;;
2020/12/17 00:51:45;;;;;;;13.9;12.6;;;;;;;8.4;82.3;101170.0;;;;
2020/12/17 00:53:45;;;;;;;13.9;12.6;;;;;;;8.3;82.9;101170.0;;;;
2020/12/17 00:57:45;;;;;;;13.9;12.6;;;;;;;8.4;83.0;101160.0;;;;
2020/12/17 01:01:45;;;;;;;13.9;12.6;;;;;;;8.5;82.5;101160.0;;;;
2020/12/17 01:02:45;;;;;;;13.9;12.6;;;;;;;8.4;82.5;101160.0;;;;
2020/12/17 01:03:45;;;;;;;13.9;12.6;;;;;;;8.3;82.3;101160.0;;;;
2020/12/17 01:05:45;;;;;;;13.9;12.6;;;;;;;8.4;82.9;101160.0;;;;
2020/12/17 01:06:45;;;;;;;13.9;12.6;;;;;;;8.3;83.0;101160.0;;;;
2020/12/17 01:09:45;;;;;;;13.9;12.6;;;;;;;8.2;83.4;101160.0;;;;
2020/12/17 01:10:45;;;;;;;13.9;12.6;;;;;;;8.4;82.8;101160.0;;;;
2020/12/17 01:11:45;;;;;;;13.9;12.6;;;;;;;8.3;82.9;101160.0;;;;
2020/12/17 01:12:45;;;;;;;13.9;12.6;;;;;;;8.4;82.9;101160.0;;;;
2020/12/17 01:13:45;;;;;;;13.9;12.6;;;;;;;8.3;82.6;101160.0;;;;
2020/12/17 01:15:45;;;;;;;13.9;12.6;;;;;;;8.4;82.6;101150.0;;;;
2020/12/17 01:20:45;;;;;;;13.1;11.9;;;;;;;8.5;82.3;101150.0;;;;
2020/12/17 01:21:49;;;;;;;13.1;11.9;;;;;;;8.4;82.1;101150.0;;;;
2020/12/17 01:22:45;;;;;;;13.1;11.9;;;;;;;8.5;82.0;101150.0;;;;
2020/12/17 01:23:45;;;;;;;13.1;11.9;;;;;;;8.4;82.3;101140.0;;;;
2020/12/17 01:27:45;;;;;;;13.1;11.9;;;;;;;8.5;82.2;101140.0;;;;
2020/12/17 01:29:45;;;;;;;13.1;11.9;;;;;;;8.4;82.1;101140.0;;;;
2020/12/17 01:32:45;;;;;;;13.1;11.9;;;;;;;8.5;82.8;101140.0;;;;
2020/12/17 01:33:45;;;;;;;13.1;11.9;;;;;;;8.4;82.3;101150.0;;;;
2020/12/17 01:42:45;;;;;;;13.1;11.9;;;;;;;8.3;83.0;101150.0;;;;
2020/12/17 01:43:46;;;;;;;13.1;11.9;;;;;;;8.4;83.3;101160.0;;;;
2020/12/17 01:47:47;;;;;;;12.7;11.5;;;;;;;8.5;82.9;101160.0;;;;
2020/12/17 01:48:45;;;;;;;12.7;11.5;;;;;;;8.6;82.2;101160.0;;;;
2020/12/17 01:49:46;;;;;;;12.7;11.5;;;;;;;8.4;82.5;101160.0;;;;
2020/12/17 01:50:46;;;;;;;12.7;11.5;;;;;;;8.5;82.8;101160.0;;;;
2020/12/17 01:59:46;;;;;;;12.7;11.5;;;;;;;8.4;82.9;101160.0;;;;
2020/12/17 02:01:46;;;;;;;12.7;11.5;;;;;;;8.6;82.5;101160.0;;;;
2020/12/17 02:02:46;;;;;;;12.7;11.5;;;;;;;8.5;82.7;101150.0;;;;
2020/12/17 02:03:45;;;;;;;12.7;11.5;;;;;;;8.4;82.8;101160.0;;;;
2020/12/17 02:04:46;;;;;;;12.7;11.5;;;;;;;8.5;83.2;101160.0;;;;
2020/12/17 02:06:46;;;;;;;12.7;11.5;;;;;;;8.6;82.3;101160.0;;;;
2020/12/17 02:09:45;;;;;;;12.7;11.5;;;;;;;8.5;82.6;101160.0;;;;
2020/12/17 02:10:45;;;;;;;12.7;11.5;;;;;;;8.4;82.9;101160.0;;;;
2020/12/17 02:11:53;;;;;;;12.7;11.5;;;;;;;8.5;82.9;101150.0;;;;
2020/12/17 02:17:45;;;;;;;10.5;9.6;;;;;;;8.6;82.2;101150.0;;;;
2020/12/17 02:20:45;;;;;;;10.5;9.6;;;;;;;8.5;82.8;101150.0;;;;
2020/12/17 02:21:45;;;;;;;10.5;9.6;;;;;;;8.6;82.7;101150.0;;;;
2020/12/17 02:22:45;;;;;;;10.5;9.6;;;;;;;8.5;82.9;101150.0;;;;
2020/12/17 02:24:45;;;;;;;10.5;9.6;;;;;;;8.4;83.1;101150.0;;;;
2020/12/17 02:25:45;;;;;;;10.5;9.6;;;;;;;8.6;82.8;101150.0;;;;
2020/12/17 02:27:45;;;;;;;10.5;9.6;;;;;;;8.5;82.5;101150.0;;;;
2020/12/17 02:29:45;;;;;;;10.5;9.6;;;;;;;8.6;82.3;101140.0;;;;
2020/12/17 02:30:45;;;;;;;10.5;9.6;;;;;;;8.5;82.3;101140.0;;;;
2020/12/17 02:32:45;;;;;;;10.5;9.6;;;;;;;8.6;82.5;101140.0;;;;
2020/12/17 02:35:45;;;;;;;10.5;9.6;;;;;;;8.5;82.5;101140.0;;;;
2020/12/17 02:37:45;;;;;;;10.5;9.6;;;;;;;8.6;82.3;101140.0;;;;
2020/12/17 02:38:45;;;;;;;10.5;9.6;;;;;;;8.5;82.3;101140.0;;;;
2020/12/17 02:39:45;;;;;;;10.5;9.6;;;;;;;8.6;82.4;101140.0;;;;
2020/12/17 02:45:45;;;;;;;10.5;9.6;;;;;;;8.5;82.4;101130.0;;;;
2020/12/17 02:46:45;;;;;;;10.5;9.6;;;;;;;8.6;82.3;101130.0;;;;
2020/12/17 02:48:49;;;;;;;10.8;9.7;;;;;;;8.7;82.2;101130.0;;;;
2020/12/17 02:49:46;;;;;;;10.8;9.7;;;;;;;8.6;82.1;101130.0;;;;
2020/12/17 02:53:45;;;;;;;10.8;9.7;;;;;;;8.7;82.2;101130.0;;;;
2020/12/17 02:54:45;;;;;;;10.8;9.7;;;;;;;8.6;82.0;101140.0;;;;
2020/12/17 02:55:45;;;;;;;10.8;9.7;;;;;;;8.5;82.3;101130.0;;;;
2020/12/17 02:56:45;;;;;;;10.8;9.7;;;;;;;8.6;82.5;101130.0;;;;
2020/12/17 02:58:45;;;;;;;10.8;9.7;;;;;;;8.5;82.7;101130.0;;;;
2020/12/17 03:00:45;;;;;;;10.8;9.7;;;;;;;8.6;82.6;101140.0;;;;
2020/12/17 03:02:45;;;;;;;10.8;9.7;;;;;;;8.7;82.6;101140.0;;;;
2020/12/17 03:05:45;;;;;;;10.8;9.7;;;;;;;8.6;82.5;101130.0;;;;
2020/12/17 03:09:45;;;;;;;10.8;9.7;;;;;;;8.7;82.3;101130.0;;;;
2020/12/17 03:10:45;;;;;;;10.8;9.7;;;;;;;8.6;82.3;101130.0;;;;
2020/12/17 03:11:46;;;;;;;10.8;9.7;;;;;;;8.7;82.5;101130.0;;;;
2020/12/17 03:14:45;;;;;;;10.8;9.7;;;;;;;8.8;82.1;101130.0;;;;
2020/12/17 03:15:45;;;;;;;10.8;9.7;;;;;;;8.7;82.4;101130.0;;;;
2020/12/17 03:20:45;;;;;;;9.8;8.7;;;;;;;8.6;82.7;101140.0;;;;
2020/12/17 03:21:45;;;;;;;9.8;8.7;;;;;;;8.7;82.3;101140.0;;;;
2020/12/17 03:22:45;;;;;;;9.8;8.7;;;;;;;8.8;82.5;101140.0;;;;
2020/12/17 03:24:45;;;;;;;9.8;8.7;;;;;;;8.6;82.5;101140.0;;;;
2020/12/17 03:25:45;;;;;;;9.8;8.7;;;;;;;8.8;82.5;101140.0;;;;
2020/12/17 03:26:45;;;;;;;9.8;8.7;;;;;;;8.7;82.7;101140.0;;;;
2020/12/17 03:30:45;;;;;;;9.8;8.7;;;;;;;8.8;82.4;101140.0;;;;
2020/12/17 03:31:45;;;;;;;9.8;8.7;;;;;;;8.9;82.2;101140.0;;;;
2020/12/17 03:33:45;;;;;;;9.8;8.7;;;;;;;8.8;82.1;101140.0;;;;
2020/12/17 03:36:45;;;;;;;9.8;8.7;;;;;;;8.7;83.2;101140.0;;;;
2020/12/17 03:37:45;;;;;;;9.8;8.7;;;;;;;8.8;82.6;101140.0;;;;
2020/12/17 03:44:45;;;;;;;9.8;8.7;;;;;;;8.7;82.9;101140.0;;;;
2020/12/17 03:45:45;;;;;;;9.8;8.7;;;;;;;8.8;82.8;101130.0;;;;
2020/12/17 03:47:45;;;;;;;10.3;9.2;;;;;;;8.7;82.9;101130.0;;;;
2020/12/17 03:48:45;;;;;;;10.3;9.2;;;;;;;8.8;83.0;101140.0;;;;
2020/12/17 03:50:45;;;;;;;10.3;9.2;;;;;;;8.7;83.0;101130.0;;;;
2020/12/17 03:51:45;;;;;;;10.3;9.2;;;;;;;8.8;82.8;101140.0;;;;
2020/12/17 03:53:45;;;;;;;10.3;9.2;;;;;;;8.9;82.8;101140.0;;;;
2020/12/17 03:54:45;;;;;;;10.3;9.2;;;;;;;8.8;82.9;101130.0;;;;
2020/12/17 03:55:45;;;;;;;10.3;9.2;;;;;;;8.7;83.2;101140.0;;;;
2020/12/17 03:57:45;;;;;;;10.3;9.2;;;;;;;8.8;83.3;101140.0;;;;
2020/12/17 04:03:45;;;;;;;10.3;9.2;;;;;;;8.7;83.5;101140.0;;;;
2020/12/17 04:08:45;;;;;;;10.3;9.2;;;;;;;8.8;84.0;101140.0;;;;
2020/12/17 04:09:45;;;;;;;10.3;9.2;;;;;;;8.9;83.8;101140.0;;;;
2020/12/17 04:10:45;;;;;;;10.3;9.2;;;;;;;8.8;83.9;101140.0;;;;
2020/12/17 04:16:45;;;;;;;10.3;9.2;;;;;;;8.9;84.0;101140.0;;;;
2020/12/17 04:18:45;;;;;;;11.6;10.4;;;;;;;8.8;84.2;101140.0;;;;
2020/12/17 04:23:45;;;;;;;11.6;10.4;;;;;;;8.9;84.1;101140.0;;;;
2020/12/17 04:27:45;;;;;;;11.6;10.4;;;;;;;8.8;84.4;101140.0;;;;
2020/12/17 04:30:45;;;;;;;11.6;10.4;;;;;;;8.9;84.6;101150.0;;;;
2020/12/17 04:31:45;;;;;;;11.6;10.4;;;;;;;8.8;84.5;101150.0;;;;
2020/12/17 04:33:45;;;;;;;11.6;10.4;;;;;;;8.9;84.5;101150.0;;;;
2020/12/17 04:34:45;;;;;;;11.6;10.4;;;;;;;8.8;84.2;101150.0;;;;
2020/12/17 04:44:45;;;;;;;11.6;10.4;;;;;;;8.9;84.6;101160.0;;;;
2020/12/17 04:45:45;;;;;;;11.6;10.4;;;;;;;8.8;84.6;101160.0;;;;
2020/12/17 04:47:46;;;;;;;13.2;11.9;;;;;;;8.7;85.1;101150.0;;;;
2020/12/17 04:49:49;;;;;;;13.2;11.9;;;;;;;8.8;85.0;101150.0;;;;
2020/12/17 04:50:45;;;;;;;13.2;11.9;;;;;;;8.9;84.9;101160.0;;;;
2020/12/17 04:53:47;;;;;;;13.2;11.9;;;;;;;8.8;84.9;101160.0;;;;
2020/12/17 04:54:45;;;;;;;13.2;11.9;;;;;;;8.9;84.9;101160.0;;;;
2020/12/17 04:58:47;;;;;;;13.2;11.9;;;;;;;9.0;84.6;101160.0;;;;
2020/12/17 04:59:46;;;;;;;13.2;11.9;;;;;;;8.9;84.7;101170.0;;;;
2020/12/17 05:10:45;;;;;;;13.2;11.9;;;;;;;8.8;84.5;101180.0;;;;
2020/12/17 05:12:45;;;;;;;13.2;11.9;;;;;;;8.9;85.1;101190.0;;;;
2020/12/17 05:14:45;;;;;;;13.2;11.9;;;;;;;8.8;84.7;101190.0;;;;
2020/12/17 05:15:45;;;;;;;13.2;11.9;;;;;;;8.9;84.8;101190.0;;;;
2020/12/17 05:19:45;;;;;;;12.3;11.1;;;;;;;8.8;84.6;101200.0;;;;
2020/12/17 05:20:45;;;;;;;12.3;11.1;;;;;;;8.9;85.0;101200.0;;;;
2020/12/17 05:24:46;;;;;;;12.3;11.1;;;;;;;8.8;85.2;101200.0;;;;
2020/12/17 05:27:45;;;;;;;12.3;11.1;;;;;;;8.9;84.9;101200.0;;;;
2020/12/17 05:29:45;;;;;;;12.3;11.1;;;;;;;8.8;85.0;101200.0;;;;
2020/12/17 05:30:45;;;;;;;12.3;11.1;;;;;;;8.9;84.5;101200.0;;;;
2020/12/17 05:32:45;;;;;;;12.3;11.1;;;;;;;8.8;84.6;101210.0;;;;
2020/12/17 05:36:46;;;;;;;12.3;11.1;;;;;;;8.9;84.7;101210.0;;;;
2020/12/17 05:38:45;;;;;;;12.3;11.1;;;;;;;8.8;84.9;101210.0;;;;
2020/12/17 05:40:45;;;;;;;12.3;11.1;;;;;;;8.9;85.2;101220.0;;;;
2020/12/17 05:41:47;;;;;;;12.3;11.1;;;;;;;8.8;85.1;101220.0;;;;
2020/12/17 05:42:45;;;;;;;12.3;11.1;;;;;;;8.9;84.8;101220.0;;;;
2020/12/17 05:45:45;;;;;;;12.3;11.1;;;;;;;8.8;84.8;101210.0;;;;
2020/12/17 05:46:47;;;;;;;13.3;12.1;;;;;;;8.9;84.8;101210.0;;;;
2020/12/17 05:48:45;;;;;;;13.3;12.1;;;;;;;8.8;85.1;101220.0;;;;
2020/12/17 05:50:49;;;;;;;13.3;12.1;;;;;;;8.9;84.9;101220.0;;;;
2020/12/17 05:52:45;;;;;;;13.3;12.1;;;;;;;8.8;84.8;101220.0;;;;
2020/12/17 05:53:47;;;;;;;13.3;12.1;;;;;;;8.9;84.7;101220.0;;;;
2020/12/17 06:05:45;;;;;;;13.3;12.1;;;;;;;8.8;84.2;101250.0;;;;
2020/12/17 06:07:47;;;;;;;13.3;12.1;;;;;;;8.7;84.7;101260.0;;;;
2020/12/17 06:08:50;;;;;;;13.3;12.1;;;;;;;8.8;84.5;101260.0;;;;
2020/12/17 06:09:49;;;;;;;13.3;12.1;;;;;;;8.7;84.4;101260.0;;;;
2020/12/17 06:12:46;;;;;;;13.3;12.1;;;;;;;8.8;85.0;101260.0;;;;
2020/12/17 06:13:45;;;;;;;13.3;12.1;;;;;;;8.7;84.9;101270.0;;;;
2020/12/17 06:15:53;;;;;;;13.3;12.1;;;;;;;8.8;84.5;101270.0;;;;
2020/12/17 06:17:50;;;;;;;13.6;12.3;;;;;;;8.6;84.5;101270.0;;;;
2020/12/17 06:19:45;;;;;;;13.6;12.3;;;;;;;8.7;84.6;101270.0;;;;
2020/12/17 06:21:45;;;;;;;13.6;12.3;;;;;;;8.6;84.7;101280.0;;;;
2020/12/17 06:22:51;;;;;;;13.6;12.3;;;;;;;8.7;84.8;101280.0;;;;
2020/12/17 06:24:45;;;;;;;13.6;12.3;;;;;;;8.8;84.4;101290.0;;;;
2020/12/17 06:25:49;;;;;;;13.6;12.3;;;;;;;8.7;84.5;101280.0;;;;
2020/12/17 06:26:51;;;;;;;13.6;12.3;;;;;;;8.8;84.3;101280.0;;;;
2020/12/17 06:27:48;;;;;;;13.6;12.3;;;;;;;8.7;84.3;101290.0;;;;
2020/12/17 06:28:47;;;;;;;13.6;12.3;;;;;;;8.8;84.2;101290.0;;;;
2020/12/17 06:29:48;;;;;;;13.6;12.3;;;;;;;8.7;84.5;101290.0;;;;
2020/12/17 06:41:45;;;;;;;13.6;12.3;;;;;;;8.6;84.5;101330.0;;;;
2020/12/17 06:43:45;;;;;;;13.6;12.3;;;;;;;8.7;84.4;101340.0;;;;
2020/12/17 06:44:45;;;;;;;13.6;12.3;;;;;;;8.6;84.3;101340.0;;;;
2020/12/17 06:46:53;;;;;;;14.8;13.4;;;;;;;8.7;84.4;101340.0;;;;
2020/12/17 06:47:45;;;;;;;14.8;13.4;;;;;;;8.6;84.7;101340.0;;;;
2020/12/17 06:51:47;;;;;;;14.8;13.4;;;;;;;8.7;84.8;101350.0;;;;
2020/12/17 06:53:45;;;;;;;14.8;13.4;;;;;;;8.6;84.2;101360.0;;;;
2020/12/17 07:01:46;;;;;;;14.8;13.4;;;;;;;8.7;84.8;101350.0;;;;
2020/12/17 07:02:45;;;;;;;14.8;13.4;;;;;;;8.6;84.9;101360.0;;;;
2020/12/17 07:09:47;;;;;;;14.8;13.4;;;;;;;8.7;84.5;101370.0;;;;
2020/12/17 07:10:45;;;;;;;14.8;13.4;;;;;;;8.6;84.6;101370.0;;;;
2020/12/17 07:12:45;;;;;;;14.8;13.4;;;;;;;8.7;84.2;101370.0;;;;
2020/12/17 07:13:45;;;;;;;14.8;13.4;;;;;;;8.5;84.2;101370.0;;;;
2020/12/17 07:15:46;;;;;;;14.8;13.4;;;;;;;8.6;84.7;101380.0;;;;
2020/12/17 07:29:47;;;;;;;16.6;15.1;;;;;;;8.7;84.4;101410.0;;;;
2020/12/17 07:30:53;;;;;;;16.6;15.1;;;;;;;8.6;84.4;101410.0;;;;
2020/12/17 07:33:45;;;;;;;16.6;15.1;;;;;;;8.5;84.4;101420.0;;;;
2020/12/17 07:44:45;;;;;;;16.6;15.1;;;;;;;8.6;84.6;101440.0;;;;
2020/12/17 07:49:45;;;;;;;17.1;15.6;;;;;;;8.5;84.4;101440.0;;;;
2020/12/17 07:51:45;;;;;;;17.1;15.6;;;;;;;8.6;84.7;101450.0;;;;
2020/12/17 07:53:46;;;;;;;17.1;15.6;;;;;;;8.5;84.5;101460.0;;;;
2020/12/17 08:00:45;;;;;;;17.1;15.6;;;;;;;8.6;84.3;101470.0;;;;
2020/12/17 08:01:45;;;;;;;17.1;15.6;;;;;;;8.5;84.5;101470.0;;;;
2020/12/17 08:03:47;;;;;;;17.1;15.6;;;;;;;8.6;84.4;101470.0;;;;
2020/12/17 08:05:45;;;;;;;17.1;15.6;;;;;;;8.5;84.1;101460.0;;;;
2020/12/17 08:06:45;;;;;;;17.1;15.6;;;;;;;8.6;84.5;101470.0;;;;
2020/12/17 08:07:50;;;;;;;17.1;15.6;;;;;;;8.5;84.6;101470.0;;;;
2020/12/17 08:08:45;;;;;;;17.1;15.6;;;;;;;8.6;84.3;101470.0;;;;
2020/12/17 08:12:45;;;;;;;17.1;15.6;;;;;;;8.5;84.1;101480.0;;;;
2020/12/17 08:24:45;;;;;;;15.2;13.7;;;;;;;8.5;84.0;101490.0;;;;
2020/12/17 08:28:47;;;;;;;15.2;13.7;;;;;;;8.6;84.0;101490.0;;;;
2020/12/17 08:29:46;;;;;;;15.2;13.7;;;;;;;8.4;84.0;101500.0;;;;
2020/12/17 08:30:45;;;;;;;15.2;13.7;;;;;;;8.5;84.1;101510.0;;;;
2020/12/17 08:35:45;;;;;;;15.2;13.7;;;;;;;8.6;84.0;101500.0;;;;
2020/12/17 08:36:45;;;;;;;15.2;13.7;;;;;;;8.5;83.9;101500.0;;;;
2020/12/17 08:39:45;;;;;;;15.2;13.7;;;;;;;8.4;83.9;101510.0;;;;
2020/12/17 08:41:47;;;;;;;15.2;13.7;;;;;;;8.5;83.8;101510.0;;;;
2020/12/17 08:44:47;;;;;;;15.2;13.7;;;;;;;8.6;83.8;101510.0;;;;
2020/12/17 08:51:46;;;;;;;11.4;10.3;;;;;;;8.5;83.7;101520.0;;;;
2020/12/17 08:52:45;;;;;;;11.4;10.3;;;;;;;8.6;83.8;101520.0;;;;
2020/12/17 08:57:46;;;;;;;11.4;10.3;;;;;;;8.5;83.5;101510.0;;;;
2020/12/17 08:58:48;;;;;;;11.4;10.3;;;;;;;8.6;83.4;101520.0;;;;
2020/12/17 09:03:46;;;;;;;11.4;10.3;;;;;;;8.5;83.3;101530.0;;;;
2020/12/17 09:06:03;;;;;;;11.4;10.3;;;;;;;8.6;83.4;101530.0;;;;
2020/12/17 09:07:52;;;;;;;11.4;10.3;;;;;;;8.5;83.4;101540.0;;;;
2020/12/17 09:10:46;;;;;;;11.4;10.3;;;;;;;8.6;83.6;101540.0;;;;
2020/12/17 09:11:46;;;;;;;11.4;10.3;;;;;;;8.5;83.4;101550.0;;;;
2020/12/17 09:19:46;;;;;;;10.5;9.4;;;;;;;8.6;83.5;101550.0;;;;
2020/12/17 09:20:45;;;;;;;10.5;9.4;;;;;;;8.5;83.6;101560.0;;;;
2020/12/17 09:21:56;;;;;;;10.5;9.4;;;;;;;8.4;83.8;101560.0;;;;
2020/12/17 09:22:46;;;;;;;10.5;9.4;;;;;;;8.5;83.6;101560.0;;;;
2020/12/17 09:24:47;;;;;;;10.5;9.4;;;;;;;8.6;83.4;101560.0;;;;
2020/12/17 09:30:45;;;;;;;10.5;9.4;;;;;;;8.5;83.3;101570.0;;;;
2020/12/17 09:33:45;;;;;;;10.5;9.4;;;;;;;8.6;83.4;101580.0;;;;
2020/12/17 09:35:46;;;;;;;10.5;9.4;;;;;;;8.5;83.2;101580.0;;;;
2020/12/17 09:38:45;;;;;;;10.5;9.4;;;;;;;8.4;82.9;101590.0;;;;
2020/12/17 09:39:45;;;;;;;10.5;9.4;;;;;;;8.5;83.0;101580.0;;;;
2020/12/17 09:40:52;;;;;;;10.5;9.4;;;;;;;8.4;83.2;101590.0;;;;
2020/12/17 09:41:54;;;;;;;10.5;9.4;;;;;;;8.5;83.1;101580.0;;;;
2020/12/17 09:45:47;;;;;;;10.1;8.6;;;;;;;8.6;82.9;101590.0;;;;
2020/12/17 09:47:45;;;;;;;10.1;8.6;;;;;;;8.5;82.7;101590.0;;;;
2020/12/17 09:50:54;;;;;;;10.1;8.6;;;;;;;8.6;82.8;101600.0;;;;
2020/12/17 09:55:45;;;;;;;10.1;8.6;;;;;;;8.5;83.0;101600.0;;;;
2020/12/17 09:56:59;;;;;;;10.1;8.6;;;;;;;8.6;83.3;101600.0;;;;
2020/12/17 09:58:45;;;;;;;10.1;8.6;;;;;;;8.7;82.4;101600.0;;;;
2020/12/17 10:00:45;;;;;;;10.1;8.6;;;;;;;8.6;82.5;101600.0;;;;
2020/12/17 10:02:45;;;;;;;10.1;8.6;;;;;;;8.7;82.6;101600.0;;;;
2020/12/17 10:03:45;;;;;;;10.1;8.6;;;;;;;8.6;82.5;101600.0;;;;
2020/12/17 10:04:45;;;;;;;10.1;8.6;;;;;;;8.7;82.5;101610.0;;;;
2020/12/17 10:09:45;;;;;;;10.1;8.6;;;;;;;8.6;82.4;101610.0;;;;
2020/12/17 10:11:46;;;;;;;10.1;8.6;;;;;;;8.7;82.5;101620.0;;;;
2020/12/17 10:12:45;;;;;;;10.1;8.6;;;;;;;8.6;82.4;101620.0;;;;
2020/12/17 10:15:45;;;;;;;9.6;7.6;;;;;;;8.8;82.5;101620.0;;;;
2020/12/17 10:20:45;;;;;;;9.6;7.6;;;;;;;8.7;82.5;101630.0;;;;
2020/12/17 10:21:46;;;;;;;9.6;7.6;;;;;;;8.8;82.5;101630.0;;;;
2020/12/17 10:22:45;;;;;;;9.6;7.6;;;;;;;8.6;82.1;101620.0;;;;
2020/12/17 10:23:45;;;;;;;9.6;7.6;;;;;;;8.7;82.0;101630.0;;;;
2020/12/17 10:25:45;;;;;;;9.6;7.6;;;;;;;8.6;82.4;101630.0;;;;
2020/12/17 10:26:45;;;;;;;9.6;7.6;;;;;;;8.7;82.4;101630.0;;;;
2020/12/17 10:30:45;;;;;;;9.6;7.6;;;;;;;8.8;82.2;101630.0;;;;
2020/12/17 10:31:47;;;;;;;9.6;7.6;;;;;;;8.7;81.9;101630.0;;;;
2020/12/17 10:35:45;;;;;;;9.6;7.6;;;;;;;8.8;82.3;101640.0;;;;
2020/12/17 10:36:45;;;;;;;9.6;7.6;;;;;;;8.7;82.2;101640.0;;;;
2020/12/17 10:37:45;;;;;;;9.6;7.6;;;;;;;8.8;82.1;101640.0;;;;
2020/12/17 10:38:45;;;;;;;9.6;7.6;;;;;;;8.9;82.1;101640.0;;;;
2020/12/17 10:41:45;;;;;;;9.6;7.6;;;;;;;8.7;81.7;101640.0;;;;
2020/12/17 10:43:45;;;;;;;9.6;7.6;;;;;;;8.6;82.2;101640.0;;;;
2020/12/17 10:44:45;;;;;;;9.6;7.6;;;;;;;8.7;81.9;101640.0;;;;
2020/12/17 10:45:45;;;;;;;11.5;7.0;;;;;;;8.8;82.0;101640.0;;;;
2020/12/17 10:47:45;;;;;;;11.5;7.0;;;;;;;8.9;81.6;101640.0;;;;
2020/12/17 10:48:45;;;;;;;11.5;7.0;;;;;;;8.8;81.7;101640.0;;;;
2020/12/17 10:50:47;;;;;;;11.5;7.0;;;;;;;8.9;82.0;101640.0;;;;
2020/12/17 10:52:45;;;;;;;11.5;7.0;;;;;;;9.0;81.6;101650.0;;;;
2020/12/17 10:54:45;;;;;;;11.5;7.0;;;;;;;9.1;81.9;101650.0;;;;
2020/12/17 10:55:45;;;;;;;11.5;7.0;;;;;;;9.0;81.9;101660.0;;;;
2020/12/17 10:56:45;;;;;;;11.5;7.0;;;;;;;9.1;81.7;101660.0;;;;
2020/12/17 10:57:45;;;;;;;11.5;7.0;;;;;;;9.0;81.5;101660.0;;;;
2020/12/17 10:58:48;;;;;;;11.5;7.0;;;;;;;9.1;81.6;101650.0;;;;
2020/12/17 11:02:45;;;;;;;11.5;7.0;;;;;;;9.0;81.6;101660.0;;;;
2020/12/17 11:04:45;;;;;;;11.5;7.0;;;;;;;9.1;82.1;101650.0;;;;
2020/12/17 11:05:45;;;;;;;11.5;7.0;;;;;;;9.2;81.9;101660.0;;;;
2020/12/17 11:06:45;;;;;;;11.5;7.0;;;;;;;9.3;81.5;101660.0;;;;
2020/12/17 11:07:45;;;;;;;11.5;7.0;;;;;;;9.2;81.4;101650.0;;;;
2020/12/17 11:09:45;;;;;;;11.5;7.0;;;;;;;9.3;81.6;101650.0;;;;
2020/12/17 11:11:45;;;;;;;11.5;7.0;;;;;;;9.4;81.2;101650.0;;;;
2020/12/17 11:12:45;;;;;;;11.5;7.0;;;;;;;9.3;81.0;101650.0;;;;
2020/12/17 11:14:45;;;;;;;11.5;7.0;;;;;;;9.2;80.9;101650.0;;;;
2020/12/17 11:15:48;;;;;;;13.6;7.4;;;;;;;9.3;80.7;101650.0;;;;
2020/12/17 11:16:48;;;;;;;13.6;7.4;;;;;;;9.4;81.1;101650.0;;;;
2020/12/17 11:19:45;;;;;;;13.6;7.4;;;;;;;9.3;80.5;101660.0;;;;
2020/12/17 11:23:45;;;;;;;13.6;7.4;;;;;;;9.4;80.7;101660.0;;;;
2020/12/17 11:25:45;;;;;;;13.6;7.4;;;;;;;9.3;81.3;101660.0;;;;
2020/12/17 11:31:46;;;;;;;13.6;7.4;;;;;;;9.4;81.0;101660.0;;;;
2020/12/17 11:37:45;;;;;;;13.6;7.4;;;;;;;9.5;80.6;101670.0;;;;
2020/12/17 11:38:45;;;;;;;13.6;7.4;;;;;;;9.4;80.6;101670.0;;;;
2020/12/17 11:43:45;;;;;;;13.6;7.4;;;;;;;9.3;80.6;101670.0;;;;
2020/12/17 11:45:45;;;;;;;9.4;7.0;;;;;;;9.4;81.1;101670.0;;;;
2020/12/17 11:47:45;;;;;;;9.4;7.0;;;;;;;9.2;80.7;101670.0;;;;
2020/12/17 11:48:46;;;;;;;9.4;7.0;;;;;;;9.3;80.6;101670.0;;;;
2020/12/17 11:49:45;;;;;;;9.4;7.0;;;;;;;9.2;80.4;101670.0;;;;
2020/12/17 11:51:49;;;;;;;9.4;7.0;;;;;;;9.3;80.9;101670.0;;;;
2020/12/17 11:53:45;;;;;;;9.4;7.0;;;;;;;9.4;80.4;101670.0;;;;
2020/12/17 11:54:45;;;;;;;9.4;7.0;;;;;;;9.5;80.2;101670.0;;;;
2020/12/17 11:55:45;;;;;;;9.4;7.0;;;;;;;9.4;79.9;101670.0;;;;
2020/12/17 11:58:45;;;;;;;9.4;7.0;;;;;;;9.5;80.2;101670.0;;;;
2020/12/17 12:02:45;;;;;;;9.4;7.0;;;;;;;9.6;80.4;101670.0;;;;
2020/12/17 12:04:45;;;;;;;9.4;7.0;;;;;;;9.5;79.5;101670.0;;;;
2020/12/17 12:05:45;;;;;;;9.4;7.0;;;;;;;9.4;79.8;101670.0;;;;
2020/12/17 12:07:46;;;;;;;9.4;7.0;;;;;;;9.5;80.2;101680.0;;;;
2020/12/17 12:08:45;;;;;;;9.4;7.0;;;;;;;9.6;80.0;101680.0;;;;
2020/12/17 12:09:45;;;;;;;9.4;7.0;;;;;;;9.5;79.8;101680.0;;;;
2020/12/17 12:11:45;;;;;;;9.4;7.0;;;;;;;9.4;79.8;101680.0;;;;
2020/12/17 12:12:45;;;;;;;9.4;7.0;;;;;;;9.5;79.6;101680.0;;;;
2020/12/17 12:13:45;;;;;;;9.4;7.0;;;;;;;9.6;79.5;101690.0;;;;
2020/12/17 12:17:47;;;;;;;9.8;5.9;;;;;;;9.5;79.8;101690.0;;;;
2020/12/17 12:18:45;;;;;;;9.8;5.9;;;;;;;9.6;80.0;101680.0;;;;
2020/12/17 12:19:45;;;;;;;9.8;5.9;;;;;;;9.5;79.9;101690.0;;;;
2020/12/17 12:20:45;;;;;;;9.8;5.9;;;;;;;9.6;79.9;101690.0;;;;
2020/12/17 12:26:46;;;;;;;9.8;5.9;;;;;;;9.7;78.8;101690.0;;;;
2020/12/17 12:30:45;;;;;;;9.8;5.9;;;;;;;9.6;79.0;101690.0;;;;
2020/12/17 12:34:45;;;;;;;9.8;5.9;;;;;;;9.5;78.9;101690.0;;;;
2020/12/17 12:41:46;;;;;;;9.8;5.9;;;;;;;9.5;78.8;101690.0;;;;
2020/12/17 12:43:45;;;;;;;9.8;5.9;;;;;;;9.6;79.0;101690.0;;;;
2020/12/17 12:51:47;;;;;;;8.4;5.1;;;;;;;9.6;78.4;101690.0;;;;
2020/12/17 12:53:45;;;;;;;8.4;5.1;;;;;;;9.7;78.8;101690.0;;;;
2020/12/17 12:54:45;;;;;;;8.4;5.1;;;;;;;9.6;78.2;101690.0;;;;
2020/12/17 12:58:45;;;;;;;8.4;5.1;;;;;;;9.5;78.6;101700.0;;;;
2020/12/17 12:59:45;;;;;;;8.4;5.1;;;;;;;9.6;78.1;101700.0;;;;
2020/12/17 13:00:45;;;;;;;8.4;5.1;;;;;;;9.5;77.5;101700.0;;;;
2020/12/17 13:03:45;;;;;;;8.4;5.1;;;;;;;9.6;78.3;101700.0;;;;
2020/12/17 13:04:45;;;;;;;8.4;5.1;;;;;;;9.7;78.6;101700.0;;;;
2020/12/17 13:05:45;;;;;;;8.4;5.1;;;;;;;9.6;78.2;101700.0;;;;
2020/12/17 13:06:45;;;;;;;8.4;5.1;;;;;;;9.5;77.5;101700.0;;;;
2020/12/17 13:07:45;;;;;;;8.4;5.1;;;;;;;9.6;77.3;101700.0;;;;
2020/12/17 13:09:45;;;;;;;8.4;5.1;;;;;;;9.7;77.8;101700.0;;;;
2020/12/17 13:11:46;;;;;;;8.4;5.1;;;;;;;9.8;77.6;101700.0;;;;
2020/12/17 13:12:45;;;;;;;8.4;5.1;;;;;;;9.7;77.8;101700.0;;;;
2020/12/17 13:13:46;;;;;;;8.4;5.1;;;;;;;9.6;77.4;101700.0;;;;
2020/12/17 13:14:45;;;;;;;10.8;4.6;;;;;;;9.7;77.9;101700.0;;;;
2020/12/17 13:15:45;;;;;;;10.8;4.6;;;;;;;9.6;77.4;101710.0;;;;
2020/12/17 13:17:45;;;;;;;10.8;4.6;;;;;;;9.5;78.4;101700.0;;;;
2020/12/17 13:18:45;;;;;;;10.8;4.6;;;;;;;9.6;78.0;101700.0;;;;
2020/12/17 13:24:45;;;;;;;10.8;4.6;;;;;;;9.7;78.6;101700.0;;;;
2020/12/17 13:26:45;;;;;;;10.8;4.6;;;;;;;9.8;78.1;101710.0;;;;
2020/12/17 13:27:45;;;;;;;10.8;4.6;;;;;;;9.9;77.3;101710.0;;;;
2020/12/17 13:29:45;;;;;;;10.8;4.6;;;;;;;10.0;77.2;101710.0;;;;
2020/12/17 13:30:46;;;;;;;10.8;4.6;;;;;;;10.1;77.4;101710.0;;;;
2020/12/17 13:31:45;;;;;;;10.8;4.6;;;;;;;10.2;76.1;101710.0;;;;
2020/12/17 13:32:45;;;;;;;10.8;4.6;;;;;;;10.1;76.2;101710.0;;;;
2020/12/17 13:35:45;;;;;;;10.8;4.6;;;;;;;10.0;77.2;101710.0;;;;
2020/12/17 13:39:45;;;;;;;10.8;4.6;;;;;;;9.9;77.2;101710.0;;;;
2020/12/17 13:40:45;;;;;;;10.8;4.6;;;;;;;10.0;77.1;101720.0;;;;
2020/12/17 13:42:45;;;;;;;10.8;4.6;;;;;;;9.9;76.8;101720.0;;;;
2020/12/17 13:45:45;;;;;;;7.1;3.8;;;;;;;9.8;75.3;101720.0;;;;
2020/12/17 13:47:45;;;;;;;7.1;3.8;;;;;;;9.7;76.6;101720.0;;;;
2020/12/17 13:49:45;;;;;;;7.1;3.8;;;;;;;9.8;77.4;101720.0;;;;
2020/12/17 13:51:45;;;;;;;7.1;3.8;;;;;;;9.9;76.7;101720.0;;;;
2020/12/17 13:53:46;;;;;;;7.1;3.8;;;;;;;9.8;75.5;101730.0;;;;
2020/12/17 13:56:45;;;;;;;7.1;3.8;;;;;;;9.7;75.3;101730.0;;;;
2020/12/17 13:59:45;;;;;;;7.1;3.8;;;;;;;9.8;76.9;101730.0;;;;
2020/12/17 14:00:45;;;;;;;7.1;3.8;;;;;;;9.7;75.9;101730.0;;;;
2020/12/17 14:04:45;;;;;;;7.1;3.8;;;;;;;9.6;76.3;101740.0;;;;
2020/12/17 14:06:45;;;;;;;7.1;3.8;;;;;;;9.7;76.1;101740.0;;;;
2020/12/17 14:07:45;;;;;;;7.1;3.8;;;;;;;9.6;75.7;101740.0;;;;
2020/12/17 14:08:45;;;;;;;7.1;3.8;;;;;;;9.7;76.6;101740.0;;;;
2020/12/17 14:09:45;;;;;;;7.1;3.8;;;;;;;9.6;76.1;101740.0;;;;
2020/12/17 14:10:45;;;;;;;7.1;3.8;;;;;;;9.7;76.9;101740.0;;;;
2020/12/17 14:11:45;;;;;;;7.1;3.8;;;;;;;9.6;75.8;101750.0;;;;
2020/12/17 14:14:45;;;;;;;8.2;3.9;;;;;;;9.7;76.7;101750.0;;;;
2020/12/17 14:16:45;;;;;;;8.2;3.9;;;;;;;9.8;75.6;101750.0;;;;
2020/12/17 14:17:45;;;;;;;8.2;3.9;;;;;;;9.7;75.7;101750.0;;;;
2020/12/17 14:19:45;;;;;;;8.2;3.9;;;;;;;9.8;76.5;101750.0;;;;
2020/12/17 14:20:45;;;;;;;8.2;3.9;;;;;;;9.7;76.5;101750.0;;;;
2020/12/17 14:22:45;;;;;;;8.2;3.9;;;;;;;9.6;76.2;101750.0;;;;
2020/12/17 14:24:45;;;;;;;8.2;3.9;;;;;;;9.7;76.4;101760.0;;;;
2020/12/17 14:26:45;;;;;;;8.2;3.9;;;;;;;9.6;75.6;101760.0;;;;
2020/12/17 14:28:45;;;;;;;8.2;3.9;;;;;;;9.7;76.0;101760.0;;;;
2020/12/17 14:30:46;;;;;;;8.2;3.9;;;;;;;9.6;76.4;101770.0;;;;
2020/12/17 14:37:45;;;;;;;8.2;3.9;;;;;;;9.5;76.4;101780.0;;;;
2020/12/17 14:39:45;;;;;;;8.2;3.9;;;;;;;9.6;75.8;101770.0;;;;
2020/12/17 14:40:45;;;;;;;8.2;3.9;;;;;;;9.5;76.1;101780.0;;;;
2020/12/17 14:43:45;;;;;;;8.2;3.9;;;;;;;9.6;76.1;101780.0;;;;
2020/12/17 14:44:45;;;;;;;9.0;4.0;;;;;;;9.7;76.5;101780.0;;;;